Ames, Iowa
Current Conditions -  °F | °C
As of 5:53 PM on Thursday 27 Nov 2014 (Local Time) from KAMW Reporting Station
Overcast Overcast  
Wind Chill: -3°   Ceiling: 5000
Heat Index:   Visibility: 10mi
Dew Point:   Wind: 7mph
Humidity: 70%   Direction: 130°SE
Pressure: 30.4"   Gusts: NA
Location:  42.03°N, 93.62°W
Report Text: KAMW 272353Z AUTO 13006KT 10SM OVC050 M13/M18 A3040 RMK AO2 SLP316 T11331178 11122 21156 58016 $
Loading
Personal Weather Stations






























Interactive Weather Map New forecast layout! Learn more

10-Day Weather Forecast

Advertisements
Track Severe Weather on mobile